createdAt,value
2023-02-11T00:01:52.823Z,14.82
2023-02-11T00:03:59.015Z,19.90
2023-02-11T00:06:05.448Z,12.52
2023-02-11T00:08:10.322Z,12.35
2023-02-11T00:10:18.592Z,18.77
2023-02-11T00:12:23.736Z,21.60
2023-02-11T00:14:28.835Z,14.55
2023-02-11T00:16:38.011Z,15.73
2023-02-11T00:18:43.170Z,13.63
2023-02-11T00:20:56.679Z,17.48
2023-02-11T00:23:03.172Z,15.38
2023-02-11T00:25:09.260Z,20.23
2023-02-11T00:27:16.775Z,17.13
2023-02-11T00:29:21.688Z,12.10
2023-02-11T00:31:27.618Z,13.43
2023-02-11T00:33:37.204Z,20.00
2023-02-11T00:35:42.349Z,15.82
2023-02-11T00:37:47.252Z,19.73
2023-02-11T00:39:53.192Z,16.40
2023-02-11T00:41:58.770Z,13.43
2023-02-11T00:44:06.821Z,19.60
2023-02-11T00:46:12.215Z,15.38
2023-02-11T00:48:17.388Z,16.20
2023-02-11T00:50:23.350Z,13.52
2023-02-11T00:52:30.640Z,18.02
2023-02-11T00:54:36.383Z,14.82
2023-02-11T00:56:41.450Z,19.25
2023-02-11T00:58:46.695Z,19.05
2023-02-11T01:00:54.762Z,16.40
2023-02-11T01:03:00.114Z,18.30
2023-02-11T01:05:07.576Z,12.95
2023-02-11T01:07:12.499Z,15.88
2023-02-11T01:09:21.334Z,15.30
2023-02-11T01:11:26.588Z,20.55
2023-02-11T01:13:33.737Z,14.45
2023-02-11T01:15:40.419Z,11.77
2023-02-11T01:17:51.223Z,15.55
2023-02-11T01:19:58.993Z,15.32
2023-02-11T01:22:03.949Z,21.60
2023-02-11T01:24:11.722Z,15.88
2023-02-11T01:26:17.018Z,16.60
2023-02-11T01:28:24.793Z,17.92
2023-02-11T01:30:29.883Z,17.83
2023-02-11T01:32:34.748Z,15.50
2023-02-11T01:34:42.863Z,14.65
2023-02-11T01:36:48.104Z,14.45
2023-02-11T01:38:53.524Z,18.08
2023-02-11T01:41:01.922Z,18.27
2023-02-11T01:43:07.054Z,11.55
2023-02-11T01:45:41.910Z,16.40
2023-02-11T01:47:46.813Z,13.52
2023-02-11T01:50:00.913Z,22.73
2023-02-11T01:52:12.959Z,17.70
2023-02-11T01:54:38.050Z,21.42
2023-02-11T01:57:00.806Z,15.05
2023-02-11T01:59:10.638Z,13.57
2023-02-11T02:01:22.778Z,22.17
2023-02-11T02:03:28.494Z,15.75
2023-02-11T02:05:43.062Z,12.65
2023-02-11T02:07:54.205Z,12.50
2023-02-11T02:10:04.918Z,13.65
2023-02-11T02:12:10.057Z,16.13
2023-02-11T02:14:17.044Z,22.70
2023-02-11T02:16:27.973Z,20.63
2023-02-11T02:18:47.068Z,17.38
2023-02-11T02:21:25.324Z,22.08
2023-02-11T02:23:47.015Z,18.70
2023-02-11T02:26:12.893Z,16.65
2023-02-11T02:28:36.589Z,23.60
2023-02-11T02:31:04.006Z,18.52
2023-02-11T02:33:28.981Z,14.63
2023-02-11T02:35:42.872Z,17.05
2023-02-11T02:38:02.863Z,16.08
2023-02-11T02:40:16.064Z,17.13
2023-02-11T02:44:27.280Z,13.27
2023-02-11T02:46:37.167Z,16.77
2023-02-11T02:48:45.270Z,19.38
2023-02-11T02:50:58.125Z,20.17
2023-02-11T02:53:15.869Z,18.13
2023-02-11T02:55:47.921Z,17.67
2023-02-11T02:58:22.590Z,18.40
2023-02-11T03:00:38.848Z,22.73
2023-02-11T03:02:54.112Z,15.48
2023-02-11T03:05:09.805Z,18.17
2023-02-11T03:07:25.309Z,18.83
2023-02-11T03:09:39.210Z,14.50
2023-02-11T03:11:45.408Z,21.05
2023-02-11T03:13:53.466Z,18.77
2023-02-11T03:16:03.394Z,19.02
2023-02-11T03:18:11.932Z,24.23
2023-02-11T03:20:23.439Z,22.85
2023-02-11T03:22:31.441Z,21.20
2023-02-11T03:24:40.409Z,19.55
2023-02-11T03:26:50.206Z,18.23
2023-02-11T03:29:03.652Z,19.30
2023-02-11T03:31:17.102Z,17.08
2023-02-11T03:33:31.250Z,22.88
2023-02-11T03:35:46.617Z,18.50
2023-02-11T03:37:57.947Z,22.17
2023-02-11T03:40:10.963Z,29.55
2023-02-11T03:42:18.892Z,25.75
2023-02-11T03:44:25.976Z,36.47
2023-02-11T03:46:36.713Z,21.30
2023-02-11T03:48:45.142Z,26.02
2023-02-11T03:50:55.844Z,25.17
2023-02-11T03:53:10.924Z,19.35
2023-02-11T03:55:20.213Z,28.05
2023-02-11T03:57:25.247Z,30.67
2023-02-11T03:59:30.288Z,21.42
2023-02-11T04:01:36.531Z,20.52
2023-02-11T04:03:41.676Z,25.50
2023-02-11T04:05:46.808Z,26.75
2023-02-11T04:07:54.431Z,24.17
2023-02-11T04:10:00.939Z,25.38
2023-02-11T04:12:06.192Z,24.42
2023-02-11T04:14:11.464Z,26.77
2023-02-11T04:16:16.598Z,27.15
2023-02-11T04:18:21.693Z,22.83
2023-02-11T04:20:27.044Z,27.15
2023-02-11T04:22:33.793Z,29.17
2023-02-11T04:24:44.472Z,22.08
2023-02-11T04:26:49.599Z,25.73
2023-02-11T04:28:54.832Z,29.52
2023-02-11T04:31:01.819Z,27.00
2023-02-11T04:33:07.184Z,29.73
2023-02-11T04:35:12.190Z,23.23
2023-02-11T04:37:17.517Z,26.08
2023-02-11T04:39:22.627Z,22.02
2023-02-11T04:41:30.561Z,23.35
2023-02-11T04:43:37.845Z,23.88
2023-02-11T04:45:43.296Z,22.75
2023-02-11T04:47:50.976Z,29.00
2023-02-11T04:49:56.639Z,27.05
2023-02-11T04:52:06.791Z,28.20
2023-02-11T04:54:12.220Z,25.58
2023-02-11T04:56:17.645Z,24.23
2023-02-11T04:58:25.246Z,35.53
2023-02-11T05:00:30.458Z,33.72
2023-02-11T05:02:37.073Z,28.10
2023-02-11T05:04:42.140Z,30.77
2023-02-11T05:06:47.203Z,33.60
2023-02-11T05:08:52.762Z,35.10
2023-02-11T05:10:57.760Z,31.38
2023-02-11T05:13:02.939Z,36.50
2023-02-11T05:15:15.046Z,36.42
2023-02-11T05:17:20.063Z,32.08
2023-02-11T05:19:28.177Z,38.80
2023-02-11T05:21:32.996Z,33.70
2023-02-11T05:23:41.982Z,34.70
2023-02-11T05:25:47.858Z,31.88
2023-02-11T05:27:52.874Z,31.58
2023-02-11T05:29:57.773Z,40.28
2023-02-11T05:32:05.192Z,34.22
2023-02-11T05:34:11.650Z,34.15
2023-02-11T05:36:16.962Z,35.33
2023-02-11T05:38:21.919Z,33.78
2023-02-11T05:40:26.871Z,33.30
2023-02-11T05:42:31.845Z,37.72
2023-02-11T05:44:36.707Z,41.50
2023-02-11T05:46:42.027Z,30.05
2023-02-11T05:48:49.790Z,38.40
2023-02-11T05:50:55.735Z,37.10
2023-02-11T05:53:00.717Z,37.28
2023-02-11T05:55:06.071Z,35.90
2023-02-11T05:57:11.013Z,34.67
2023-02-11T05:59:17.461Z,37.60
2023-02-11T06:01:22.568Z,43.08
2023-02-11T06:03:27.654Z,42.63
2023-02-11T06:05:38.398Z,44.08
2023-02-11T06:07:44.760Z,46.78
2023-02-11T06:09:49.545Z,40.15
2023-02-11T06:11:59.941Z,39.80
2023-02-11T06:14:06.265Z,38.85
2023-02-11T06:16:12.195Z,38.58
2023-02-11T06:18:19.192Z,36.92
2023-02-11T06:20:24.128Z,35.60
2023-02-11T06:22:32.017Z,38.58
2023-02-11T06:24:54.992Z,35.75
2023-02-11T06:27:02.417Z,42.63
2023-02-11T06:29:07.453Z,34.58
2023-02-11T06:31:13.213Z,35.55
2023-02-11T06:33:20.765Z,34.88
2023-02-11T06:35:28.018Z,39.65
2023-02-11T06:37:37.401Z,47.00
2023-02-11T06:39:43.242Z,38.08
2023-02-11T06:41:53.867Z,36.35
2023-02-11T06:43:59.148Z,45.20
2023-02-11T06:46:04.034Z,42.72
2023-02-11T06:48:15.456Z,37.78
2023-02-11T06:50:20.362Z,44.03
2023-02-11T06:52:26.408Z,36.88
2023-02-11T06:54:36.862Z,48.97
2023-02-11T06:56:44.460Z,42.33
2023-02-11T06:58:51.550Z,40.13
2023-02-11T07:00:59.017Z,38.72
2023-02-11T07:03:05.054Z,41.80
2023-02-11T07:05:11.436Z,44.65
2023-02-11T07:07:19.542Z,38.47
2023-02-11T07:09:24.998Z,44.72
2023-02-11T07:11:33.798Z,43.60
2023-02-11T07:13:40.672Z,33.75
2023-02-11T07:15:46.015Z,40.75
2023-02-11T07:17:54.043Z,40.08
2023-02-11T07:19:58.957Z,48.88
2023-02-11T07:22:06.024Z,38.83
2023-02-11T07:24:12.101Z,43.92
2023-02-11T07:26:23.157Z,36.33
2023-02-11T07:28:31.086Z,39.58
2023-02-11T07:30:39.472Z,31.05
2023-02-11T07:32:44.714Z,35.78
2023-02-11T07:34:50.105Z,42.42
2023-02-11T07:36:55.382Z,36.25
2023-02-11T07:39:00.585Z,41.90
2023-02-11T07:41:06.619Z,39.35
2023-02-11T07:43:12.084Z,43.50
2023-02-11T07:45:20.905Z,38.10
2023-02-11T07:47:25.777Z,42.13
2023-02-11T07:49:31.067Z,37.67
2023-02-11T07:51:38.251Z,37.13
2023-02-11T07:53:47.830Z,34.75
2023-02-11T07:55:53.091Z,44.60
2023-02-11T07:57:58.204Z,45.85
2023-02-11T08:00:05.006Z,44.65
2023-02-11T08:02:16.103Z,46.63
2023-02-11T08:04:21.226Z,43.50
2023-02-11T08:06:32.211Z,44.55
2023-02-11T08:08:37.722Z,57.22
2023-02-11T08:10:44.569Z,51.15
2023-02-11T08:12:54.309Z,49.00
2023-02-11T08:15:00.925Z,49.92
2023-02-11T08:17:06.798Z,51.47
2023-02-11T08:19:17.552Z,46.55
2023-02-11T08:21:25.016Z,51.47
2023-02-11T08:23:30.946Z,53.65
2023-02-11T08:25:36.344Z,52.28
2023-02-11T08:27:43.624Z,47.65
2023-02-11T08:29:50.401Z,50.97
2023-02-11T08:31:56.719Z,47.22
2023-02-11T08:34:03.713Z,55.22
2023-02-11T08:36:15.683Z,53.72
2023-02-11T08:38:21.893Z,53.33
2023-02-11T08:40:29.943Z,52.35
2023-02-11T08:42:47.503Z,47.30
2023-02-11T08:44:52.635Z,47.28
2023-02-11T08:47:00.327Z,52.47
2023-02-11T08:49:08.038Z,52.28
2023-02-11T08:51:27.852Z,46.08
2023-02-11T08:53:37.438Z,53.47
2023-02-11T08:55:43.612Z,50.40
2023-02-11T08:57:49.289Z,51.67
2023-02-11T08:59:57.484Z,48.58
2023-02-11T09:02:04.989Z,48.22
2023-02-11T09:04:11.104Z,51.22
2023-02-11T09:06:19.844Z,45.22
2023-02-11T09:08:26.059Z,42.25
2023-02-11T09:10:31.297Z,45.35
2023-02-11T09:12:36.541Z,41.20
2023-02-11T09:14:42.119Z,44.20
2023-02-11T09:16:48.113Z,43.38
2023-02-11T09:18:55.677Z,43.13
2023-02-11T09:21:06.198Z,43.80
2023-02-11T09:23:18.675Z,44.70
2023-02-11T09:25:27.252Z,41.83
2023-02-11T09:27:32.967Z,44.60
2023-02-11T09:29:41.615Z,39.88
2023-02-11T09:31:50.593Z,35.92
2023-02-11T09:34:00.879Z,38.80
2023-02-11T09:36:06.949Z,38.78
2023-02-11T09:38:16.371Z,39.88
2023-02-11T09:40:23.201Z,35.95
2023-02-11T09:42:44.522Z,36.28
2023-02-11T09:44:53.227Z,29.40
2023-02-11T09:47:01.696Z,31.70
2023-02-11T09:49:09.463Z,31.08
2023-02-11T09:51:24.007Z,30.38
2023-02-11T09:53:41.673Z,29.17
2023-02-11T09:55:55.969Z,28.50
2023-02-11T09:58:08.092Z,31.40
2023-02-11T10:00:22.968Z,32.92
2023-02-11T10:02:38.317Z,27.50
2023-02-11T10:05:04.173Z,28.58
2023-02-11T10:07:21.884Z,29.65
2023-02-11T10:09:50.574Z,22.67
2023-02-11T10:12:06.612Z,28.63
2023-02-11T10:14:24.702Z,22.35
2023-02-11T10:16:47.881Z,22.33
2023-02-11T10:19:22.058Z,25.60
2023-02-11T10:21:41.861Z,22.17
2023-02-11T10:23:52.167Z,26.42
2023-02-11T10:26:02.569Z,20.95
2023-02-11T10:28:19.878Z,22.02
2023-02-11T10:30:33.142Z,22.05
2023-02-11T10:32:47.986Z,23.50
2023-02-11T10:34:53.910Z,21.60
2023-02-11T10:37:02.474Z,22.88
2023-02-11T10:39:15.420Z,19.88
2023-02-11T10:41:27.170Z,22.80
2023-02-11T10:43:36.002Z,23.35
2023-02-11T10:45:50.846Z,21.23
2023-02-11T10:47:56.206Z,22.13
2023-02-11T10:50:03.907Z,24.90
2023-02-11T10:52:18.172Z,22.50
2023-02-11T10:54:37.695Z,20.42
2023-02-11T10:56:53.779Z,22.38
2023-02-11T10:59:02.324Z,19.70
2023-02-11T11:01:23.420Z,26.98
2023-02-11T11:03:31.942Z,29.08
2023-02-11T11:05:48.732Z,23.50
2023-02-11T11:08:00.987Z,23.75
2023-02-11T11:10:09.974Z,22.63
2023-02-11T11:12:35.212Z,20.30
2023-02-11T11:14:41.722Z,19.73
2023-02-11T11:16:55.812Z,22.60
2023-02-11T11:19:24.618Z,22.65
2023-02-11T11:21:45.277Z,23.77
2023-02-11T11:23:56.553Z,30.55
2023-02-11T11:26:09.095Z,24.77
2023-02-11T11:28:27.059Z,21.48
2023-02-11T11:30:43.485Z,22.13
2023-02-11T11:32:57.954Z,22.08
2023-02-11T11:35:06.458Z,22.42
2023-02-11T11:37:21.752Z,21.92
2023-02-11T11:39:29.489Z,22.02
2023-02-11T11:41:37.115Z,21.95
2023-02-11T11:44:07.734Z,20.17
2023-02-11T11:46:13.144Z,20.25
2023-02-11T11:48:26.195Z,21.33
2023-02-11T11:50:39.356Z,21.17
2023-02-11T11:55:01.900Z,22.08
2023-02-11T11:57:17.612Z,19.63
2023-02-11T11:59:25.891Z,27.05
2023-02-11T12:01:46.620Z,17.92
2023-02-11T12:04:39.448Z,23.33
2023-02-11T12:06:55.931Z,20.85
2023-02-11T12:09:12.575Z,27.80
2023-02-11T12:11:30.191Z,19.38
2023-02-11T12:13:47.333Z,22.48
2023-02-11T12:16:07.008Z,23.55
2023-02-11T12:18:38.306Z,22.25
2023-02-11T12:20:59.830Z,21.88
2023-02-11T12:23:34.696Z,24.08
2023-02-11T12:25:49.643Z,24.30
2023-02-11T12:28:19.593Z,20.90
2023-02-11T12:30:40.623Z,24.05
2023-02-11T12:32:58.584Z,21.33
2023-02-11T12:35:21.025Z,17.77
2023-02-11T12:37:39.418Z,19.55
2023-02-11T12:39:54.349Z,23.20
2023-02-11T12:42:28.538Z,21.55
2023-02-11T12:44:56.257Z,22.75
2023-02-11T12:47:12.840Z,20.33
2023-02-11T12:49:39.265Z,20.48
2023-02-11T12:51:56.980Z,24.20
2023-02-11T12:54:21.057Z,15.07
2023-02-11T12:56:31.330Z,18.10
2023-02-11T12:58:47.069Z,18.02
2023-02-11T13:00:55.940Z,18.00
2023-02-11T13:03:11.614Z,19.45
2023-02-11T13:05:27.830Z,17.00
2023-02-11T13:07:40.251Z,17.17
2023-02-11T13:09:50.447Z,19.23
2023-02-11T13:12:21.032Z,15.35
2023-02-11T13:14:32.576Z,16.02
2023-02-11T13:16:44.381Z,19.65
2023-02-11T13:18:58.009Z,17.75
2023-02-11T13:21:24.934Z,17.17
2023-02-11T13:23:41.536Z,16.48
2023-02-11T13:25:51.903Z,16.30
2023-02-11T13:28:06.312Z,13.18
2023-02-11T13:30:28.636Z,18.05
2023-02-11T13:33:09.659Z,14.20
2023-02-11T13:35:31.098Z,15.55
2023-02-11T13:37:41.950Z,14.85
2023-02-11T13:40:02.479Z,13.02
2023-02-11T13:42:07.710Z,16.00
2023-02-11T13:44:29.352Z,17.17
2023-02-11T13:46:54.281Z,14.23
2023-02-11T13:49:02.463Z,26.58
2023-02-11T13:51:10.518Z,15.90
2023-02-11T13:53:16.185Z,11.80
2023-02-11T13:55:27.638Z,13.75
2023-02-11T13:57:43.422Z,13.48
2023-02-11T13:59:57.601Z,14.70
2023-02-11T14:02:21.596Z,12.80
2023-02-11T14:04:41.890Z,12.93
2023-02-11T14:07:46.215Z,13.70
2023-02-11T14:09:53.480Z,12.88
2023-02-11T14:12:40.679Z,14.55
2023-02-11T14:15:15.614Z,13.35
2023-02-11T14:17:31.088Z,14.77
2023-02-11T14:19:37.590Z,13.32
2023-02-11T14:21:45.678Z,11.75
2023-02-11T14:23:58.347Z,11.70
2023-02-11T14:26:25.627Z,15.02
2023-02-11T14:28:36.570Z,13.15
2023-02-11T14:30:52.452Z,14.18
2023-02-11T14:33:26.390Z,14.23
2023-02-11T14:37:53.786Z,15.15
2023-02-11T14:40:19.773Z,13.25
2023-02-11T14:42:31.090Z,10.07
2023-02-11T14:44:37.310Z,11.88
2023-02-11T14:47:11.622Z,13.45
2023-02-11T14:49:28.122Z,11.35
2023-02-11T14:51:37.088Z,10.65
2023-02-11T14:53:51.228Z,11.07
2023-02-11T14:56:00.436Z,17.30
2023-02-11T14:58:21.611Z,12.43
2023-02-11T15:00:27.149Z,11.10
2023-02-11T15:02:36.770Z,10.68
2023-02-11T15:04:42.272Z,12.05
2023-02-11T15:06:53.149Z,12.18
2023-02-11T15:09:01.588Z,11.63
2023-02-11T15:11:17.426Z,14.52
2023-02-11T15:13:31.207Z,14.98
2023-02-11T15:15:43.318Z,11.90
2023-02-11T15:17:57.607Z,11.95
2023-02-11T15:20:06.485Z,11.45
2023-02-11T15:22:22.593Z,11.98
2023-02-11T15:24:32.814Z,12.20
2023-02-11T15:26:40.435Z,13.15
2023-02-11T15:28:52.275Z,13.20
2023-02-11T15:31:05.110Z,12.82
2023-02-11T15:33:25.750Z,11.85
2023-02-11T15:35:38.120Z,14.45
2023-02-11T15:37:48.290Z,12.47
2023-02-11T15:39:57.724Z,10.93
2023-02-11T15:42:27.269Z,11.00
2023-02-11T15:44:38.411Z,15.43
2023-02-11T15:46:47.862Z,11.40
2023-02-11T15:48:56.637Z,13.68
2023-02-11T15:51:08.357Z,13.52
2023-02-11T15:53:28.323Z,13.98
2023-02-11T15:55:35.339Z,11.25
2023-02-11T15:57:45.837Z,13.18
2023-02-11T15:59:56.842Z,10.90
2023-02-11T16:02:10.015Z,10.68
2023-02-11T16:06:41.912Z,10.65
2023-02-11T16:08:59.846Z,11.30
2023-02-11T16:11:09.216Z,10.95
2023-02-11T16:13:28.567Z,12.15
2023-02-11T16:16:01.827Z,10.20
2023-02-11T16:18:15.773Z,12.45
2023-02-11T16:20:22.257Z,9.77
2023-02-11T16:22:30.319Z,16.88
2023-02-11T16:24:37.023Z,10.60
2023-02-11T16:26:45.340Z,19.50
2023-02-11T16:28:54.263Z,11.98
2023-02-11T16:34:32.244Z,13.57
2023-02-11T16:36:37.313Z,14.45
2023-02-11T16:38:42.255Z,11.85
2023-02-11T16:40:49.814Z,12.35
2023-02-11T16:42:56.036Z,12.40
2023-02-11T16:45:04.034Z,13.43
2023-02-11T16:47:19.696Z,11.68
2023-02-11T16:49:27.833Z,14.63
2023-02-11T16:51:33.081Z,13.00
2023-02-11T16:53:37.940Z,11.60
2023-02-11T16:55:43.144Z,11.63
2023-02-11T16:57:51.205Z,12.75
2023-02-11T17:00:03.891Z,12.68
2023-02-11T17:02:17.017Z,13.45
2023-02-11T17:06:30.119Z,16.67
2023-02-11T17:08:36.450Z,20.05
2023-02-11T17:10:41.563Z,16.70
2023-02-11T17:12:46.881Z,17.90
2023-02-11T17:14:51.851Z,16.58
2023-02-11T17:17:02.687Z,15.23
2023-02-11T17:19:11.015Z,14.57
2023-02-11T17:21:16.365Z,13.88
2023-02-11T17:23:21.485Z,17.40
2023-02-11T17:25:26.883Z,12.52
2023-02-11T17:27:32.010Z,12.93
2023-02-11T17:29:37.020Z,16.70
2023-02-11T17:31:43.131Z,13.15
2023-02-11T17:33:51.780Z,17.75
2023-02-11T17:36:06.802Z,12.48
2023-02-11T17:38:20.151Z,16.00
2023-02-11T17:40:25.688Z,14.50
2023-02-11T17:42:31.448Z,17.48
2023-02-11T17:44:37.508Z,16.70
2023-02-11T17:46:42.635Z,15.98
2023-02-11T17:48:47.974Z,18.55
2023-02-11T17:50:54.575Z,14.73
2023-02-11T17:53:02.597Z,16.58
2023-02-11T17:55:08.956Z,17.63
2023-02-11T17:57:14.856Z,15.90
2023-02-11T17:59:21.274Z,20.60
2023-02-11T18:01:26.201Z,18.02
2023-02-11T18:03:31.095Z,16.88
2023-02-11T18:05:42.464Z,29.42
2023-02-11T18:07:48.145Z,19.52
2023-02-11T18:09:58.950Z,21.25
2023-02-11T18:12:04.231Z,16.08
2023-02-11T18:14:10.787Z,17.60
2023-02-11T18:16:17.370Z,19.10
2023-02-11T18:18:22.419Z,14.43
2023-02-11T18:20:27.643Z,15.40
2023-02-11T18:22:39.815Z,21.67
2023-02-11T18:24:49.720Z,17.17
2023-02-11T18:26:57.649Z,18.88
2023-02-11T18:29:03.965Z,17.02
2023-02-11T18:31:10.352Z,17.13
2023-02-11T18:33:21.069Z,20.58
2023-02-11T18:35:27.029Z,17.45
2023-02-11T18:37:32.257Z,18.58
2023-02-11T18:39:37.307Z,18.15
2023-02-11T18:41:43.803Z,16.33
2023-02-11T18:43:52.118Z,16.70
2023-02-11T18:45:57.201Z,18.58
2023-02-11T18:48:05.561Z,19.70
2023-02-11T18:50:14.015Z,19.83
2023-02-11T18:52:19.668Z,19.33
2023-02-11T18:54:25.043Z,17.48
2023-02-11T18:56:30.782Z,18.40
2023-02-11T18:58:37.700Z,16.15
2023-02-11T19:00:50.922Z,15.82
2023-02-11T19:02:58.471Z,17.50
2023-02-11T19:05:06.259Z,18.50
2023-02-11T19:07:11.492Z,17.80
2023-02-11T19:09:19.861Z,17.50
2023-02-11T19:11:45.210Z,22.55
2023-02-11T19:13:51.931Z,21.55
2023-02-11T19:16:01.954Z,18.65
2023-02-11T19:18:07.262Z,17.10
2023-02-11T19:20:13.034Z,18.83
2023-02-11T19:22:19.717Z,18.45
2023-02-11T19:24:26.355Z,17.85
2023-02-11T19:26:32.574Z,17.40
2023-02-11T19:28:38.336Z,23.80
2023-02-11T19:30:45.030Z,22.33
2023-02-11T19:32:57.173Z,16.38
2023-02-11T19:35:02.315Z,17.98
2023-02-11T19:37:07.308Z,17.00
2023-02-11T19:39:13.172Z,19.25
2023-02-11T19:41:22.528Z,21.30
2023-02-11T19:43:30.262Z,21.38
2023-02-11T19:45:35.133Z,17.67
2023-02-11T19:47:40.235Z,20.70
2023-02-11T19:49:51.126Z,20.27
2023-02-11T19:51:58.571Z,23.10
2023-02-11T19:54:03.782Z,19.45
2023-02-11T19:56:12.859Z,20.98
2023-02-11T19:58:20.913Z,23.35
2023-02-11T20:00:25.808Z,21.00
2023-02-11T20:02:31.407Z,21.27
2023-02-11T20:04:36.387Z,19.42
2023-02-11T20:06:44.197Z,20.63
2023-02-11T20:08:49.337Z,23.00
2023-02-11T20:10:54.442Z,18.40
2023-02-11T20:12:59.520Z,15.63
2023-02-11T20:15:04.243Z,19.42
2023-02-11T20:17:11.277Z,20.23
2023-02-11T20:19:18.395Z,20.35
2023-02-11T20:21:26.427Z,18.95
2023-02-11T20:23:36.455Z,16.45
2023-02-11T20:25:42.564Z,18.08
2023-02-11T20:27:47.731Z,21.70
2023-02-11T20:29:52.733Z,19.70
2023-02-11T20:31:57.666Z,27.90
2023-02-11T20:34:03.242Z,23.38
2023-02-11T20:36:10.533Z,19.67
2023-02-11T20:38:15.638Z,23.70
2023-02-11T20:40:24.495Z,20.35
2023-02-11T20:42:30.550Z,27.33
2023-02-11T20:44:37.063Z,25.80
2023-02-11T20:46:46.103Z,24.27
2023-02-11T20:48:51.545Z,20.33
2023-02-11T20:50:58.860Z,22.88
2023-02-11T20:53:03.888Z,21.85
2023-02-11T20:55:09.521Z,17.67
2023-02-11T20:57:16.881Z,20.27
2023-02-11T20:59:22.512Z,20.48
2023-02-11T21:01:29.744Z,18.23
2023-02-11T21:03:35.151Z,21.80
2023-02-11T21:05:40.009Z,21.13
2023-02-11T21:07:47.131Z,20.58
2023-02-11T21:09:51.987Z,22.85
2023-02-11T21:11:57.651Z,17.25
2023-02-11T21:14:07.267Z,16.90
2023-02-11T21:16:14.954Z,16.08
2023-02-11T21:18:20.669Z,20.40
2023-02-11T21:20:25.662Z,19.85
2023-02-11T21:22:30.585Z,21.88
2023-02-11T21:24:37.193Z,19.85
2023-02-11T21:26:42.575Z,18.13
2023-02-11T21:28:49.644Z,20.23
2023-02-11T21:31:00.792Z,22.40
2023-02-11T21:33:05.719Z,21.73
2023-02-11T21:35:11.344Z,16.73
2023-02-11T21:37:16.227Z,21.83
2023-02-11T21:39:21.271Z,25.48
2023-02-11T21:41:27.478Z,22.13
2023-02-11T21:43:41.587Z,19.85
2023-02-11T21:45:49.545Z,19.65
2023-02-11T21:47:57.212Z,22.92
2023-02-11T21:50:02.608Z,22.02
2023-02-11T21:52:07.886Z,24.50
2023-02-11T21:54:14.601Z,18.15
2023-02-11T21:56:21.950Z,23.73
2023-02-11T21:58:26.709Z,18.75
2023-02-11T22:00:32.065Z,23.45
2023-02-11T22:02:36.973Z,20.48
2023-02-11T22:04:44.643Z,19.27
2023-02-11T22:06:50.755Z,20.73
2023-02-11T22:08:56.072Z,22.05
2023-02-11T22:11:05.562Z,23.38
2023-02-11T22:13:10.437Z,22.83
2023-02-11T22:15:16.448Z,23.88
2023-02-11T22:17:22.049Z,23.55
2023-02-11T22:19:27.562Z,22.25
2023-02-11T22:21:35.144Z,21.48
2023-02-11T22:23:40.998Z,19.33
2023-02-11T22:25:46.126Z,23.63
2023-02-11T22:27:51.576Z,26.88
2023-02-11T22:29:59.778Z,23.77
2023-02-11T22:32:07.066Z,20.88
2023-02-11T22:34:12.086Z,23.50
2023-02-11T22:36:23.463Z,20.35
2023-02-11T22:38:32.106Z,21.88
2023-02-11T22:40:37.106Z,18.02
2023-02-11T22:42:41.972Z,19.88
2023-02-11T22:44:47.031Z,21.65
2023-02-11T22:46:53.652Z,20.20
2023-02-11T22:48:59.656Z,18.88
2023-02-11T22:51:08.444Z,21.30
2023-02-11T22:53:13.455Z,21.42
2023-02-11T22:55:21.036Z,20.05
2023-02-11T22:57:26.071Z,24.30
2023-02-11T22:59:31.027Z,20.27
2023-02-11T23:01:36.809Z,18.75
2023-02-11T23:03:42.614Z,20.65
2023-02-11T23:05:50.617Z,21.83
2023-02-11T23:07:55.651Z,19.83
2023-02-11T23:10:00.785Z,18.63
2023-02-11T23:12:11.528Z,17.80
2023-02-11T23:14:16.801Z,19.13
2023-02-11T23:16:24.905Z,21.40
2023-02-11T23:18:29.845Z,20.25
2023-02-11T23:20:36.835Z,20.48
2023-02-11T23:22:41.812Z,19.83
2023-02-11T23:24:46.831Z,20.67
2023-02-11T23:26:51.807Z,21.77
2023-02-11T23:29:02.831Z,20.90
2023-02-11T23:31:16.232Z,18.98
2023-02-11T23:33:21.215Z,23.15
2023-02-11T23:35:26.179Z,19.63
2023-02-11T23:37:31.055Z,19.08
2023-02-11T23:39:37.936Z,19.13
2023-02-11T23:41:42.843Z,22.35
2023-02-11T23:43:47.901Z,19.85
2023-02-11T23:45:56.010Z,22.55
2023-02-11T23:48:01.209Z,16.77
2023-02-11T23:50:06.409Z,20.05
2023-02-11T23:52:11.336Z,18.95
2023-02-11T23:54:17.980Z,21.67
2023-02-11T23:56:25.842Z,24.55
2023-02-11T23:58:30.702Z,16.45
